createdAt,value
2018-03-31T00:01:35.162Z,9.78
2018-03-31T00:04:02.990Z,9.82
2018-03-31T00:06:30.776Z,9.84
2018-03-31T00:08:58.616Z,9.82
2018-03-31T00:11:26.399Z,9.79
2018-03-31T00:13:54.227Z,9.83
2018-03-31T00:16:22.014Z,9.91
2018-03-31T00:18:50.484Z,10.01
2018-03-31T00:21:18.315Z,10.04
2018-03-31T00:23:46.115Z,10.09
2018-03-31T00:26:13.934Z,10.16
2018-03-31T00:28:41.742Z,10.21
2018-03-31T00:31:09.567Z,10.23
2018-03-31T00:33:37.367Z,10.19
2018-03-31T00:36:05.191Z,10.18
2018-03-31T00:38:32.985Z,10.13
2018-03-31T00:41:00.810Z,10.15
2018-03-31T00:43:28.612Z,10.15
2018-03-31T00:45:56.436Z,10.21
2018-03-31T00:48:24.237Z,10.27
2018-03-31T00:50:52.061Z,10.23
2018-03-31T00:53:20.118Z,10.24
2018-03-31T00:55:47.942Z,10.19
2018-03-31T00:58:15.735Z,9.91
2018-03-31T01:00:43.554Z,9.83
2018-03-31T01:03:11.355Z,9.81
2018-03-31T01:05:39.168Z,9.77
2018-03-31T01:08:06.963Z,9.69
2018-03-31T01:10:35.126Z,9.72
2018-03-31T01:13:02.946Z,9.65
2018-03-31T01:15:30.758Z,9.73
2018-03-31T01:17:58.567Z,9.82
2018-03-31T01:20:26.380Z,9.82
2018-03-31T01:22:54.170Z,9.83
2018-03-31T01:25:21.990Z,9.83
2018-03-31T01:27:50.023Z,9.97
2018-03-31T01:30:17.843Z,9.98
2018-03-31T01:32:45.634Z,10.07
2018-03-31T01:35:13.458Z,10.04
2018-03-31T01:37:41.246Z,10.05
2018-03-31T01:40:09.070Z,9.96
2018-03-31T01:42:36.864Z,9.91
2018-03-31T01:45:05.099Z,9.87
2018-03-31T01:47:34.934Z,9.80
2018-03-31T01:50:02.754Z,9.78
2018-03-31T01:52:30.551Z,9.80
2018-03-31T01:54:58.378Z,9.74
2018-03-31T01:57:26.201Z,9.74
2018-03-31T01:59:53.990Z,9.70
2018-03-31T02:02:21.804Z,9.74
2018-03-31T02:04:49.722Z,9.73
2018-03-31T02:07:17.534Z,9.69
2018-03-31T02:09:45.335Z,9.63
2018-03-31T02:12:13.151Z,9.58
2018-03-31T02:14:40.942Z,9.62
2018-03-31T02:17:08.760Z,9.59
2018-03-31T02:19:36.559Z,9.63
2018-03-31T02:22:04.374Z,9.58
2018-03-31T02:24:32.162Z,9.59
2018-03-31T02:26:59.986Z,9.53
2018-03-31T02:29:27.782Z,9.48
2018-03-31T02:31:55.612Z,9.41
2018-03-31T02:34:23.399Z,9.38
2018-03-31T02:36:51.209Z,9.40
2018-03-31T02:39:19.004Z,9.34
2018-03-31T02:41:46.815Z,9.29
2018-03-31T02:44:14.608Z,9.33
2018-03-31T02:46:42.422Z,9.28
2018-03-31T02:49:10.215Z,9.32
2018-03-31T02:51:38.032Z,9.32
2018-03-31T02:54:05.822Z,9.19
2018-03-31T02:56:33.630Z,9.19
2018-03-31T02:59:01.431Z,9.23
2018-03-31T03:01:29.235Z,9.22
2018-03-31T03:03:57.031Z,9.24
2018-03-31T03:06:24.850Z,9.18
2018-03-31T03:08:52.625Z,9.14
2018-03-31T03:11:20.429Z,9.12
2018-03-31T03:13:48.219Z,9.05
2018-03-31T03:16:15.746Z,9.08
2018-03-31T03:18:43.246Z,9.08
2018-03-31T03:21:10.774Z,9.00
2018-03-31T03:23:38.286Z,9.03
2018-03-31T03:26:05.811Z,9.01
2018-03-31T03:28:33.313Z,8.98
2018-03-31T03:31:00.842Z,9.04
2018-03-31T03:33:28.347Z,9.02
2018-03-31T03:35:55.883Z,8.98
2018-03-31T03:38:23.394Z,8.87
2018-03-31T03:40:50.910Z,8.82
2018-03-31T03:43:18.433Z,8.81
2018-03-31T03:45:45.950Z,8.82
2018-03-31T03:48:13.482Z,8.75
2018-03-31T03:50:40.990Z,8.68
2018-03-31T03:53:08.523Z,8.66
2018-03-31T03:55:36.038Z,8.51
2018-03-31T03:58:03.566Z,8.51
2018-03-31T04:00:31.150Z,8.55
2018-03-31T04:02:58.665Z,8.53
2018-03-31T04:05:26.174Z,8.53
2018-03-31T04:07:53.706Z,8.48
2018-03-31T04:10:21.231Z,8.48
2018-03-31T04:12:48.763Z,8.40
2018-03-31T04:15:16.283Z,8.29
2018-03-31T04:17:43.818Z,8.29
2018-03-31T04:20:11.332Z,8.28
2018-03-31T04:22:38.862Z,8.24
2018-03-31T04:25:06.370Z,8.30
2018-03-31T04:27:33.894Z,8.33
2018-03-31T04:30:01.415Z,8.37
2018-03-31T04:32:28.950Z,8.32
2018-03-31T04:34:56.462Z,8.36
2018-03-31T04:37:24.006Z,8.32
2018-03-31T04:39:51.515Z,8.36
2018-03-31T04:42:19.053Z,8.32
2018-03-31T04:44:46.583Z,8.30
2018-03-31T04:47:14.102Z,8.33
2018-03-31T04:49:41.623Z,8.32
2018-03-31T04:52:09.157Z,8.33
2018-03-31T04:54:36.667Z,8.32
2018-03-31T04:57:04.214Z,8.28
2018-03-31T04:59:31.720Z,8.27
2018-03-31T05:01:59.254Z,8.23
2018-03-31T05:04:26.762Z,8.26
2018-03-31T05:06:54.298Z,8.26
2018-03-31T05:09:21.817Z,8.20
2018-03-31T05:11:49.341Z,8.22
2018-03-31T05:14:16.852Z,8.17
2018-03-31T05:16:44.378Z,8.12
2018-03-31T05:19:11.917Z,8.03
2018-03-31T05:21:39.419Z,8.03
2018-03-31T05:24:06.955Z,7.97
2018-03-31T05:26:34.502Z,8.03
2018-03-31T05:29:02.052Z,8.14
2018-03-31T05:31:29.557Z,8.15
2018-03-31T05:33:57.091Z,8.11
2018-03-31T05:36:24.616Z,8.13
2018-03-31T05:38:52.155Z,8.09
2018-03-31T05:41:19.674Z,8.23
2018-03-31T05:43:47.206Z,8.22
2018-03-31T05:46:14.722Z,8.25
2018-03-31T05:48:42.257Z,8.31
2018-03-31T05:51:09.771Z,8.36
2018-03-31T05:53:37.305Z,8.28
2018-03-31T05:56:04.811Z,8.37
2018-03-31T05:58:32.339Z,8.34
2018-03-31T06:00:59.843Z,8.32
2018-03-31T06:03:27.375Z,8.24
2018-03-31T06:05:54.882Z,8.24
2018-03-31T06:08:22.425Z,8.30
2018-03-31T06:10:49.936Z,8.23
2018-03-31T06:13:17.469Z,8.23
2018-03-31T06:15:44.979Z,8.23
2018-03-31T06:18:12.509Z,8.29
2018-03-31T06:20:40.031Z,8.13
2018-03-31T06:23:07.561Z,8.15
2018-03-31T06:25:35.070Z,8.13
2018-03-31T06:28:02.766Z,8.07
2018-03-31T06:30:30.510Z,8.08
2018-03-31T06:32:58.098Z,8.05
2018-03-31T06:35:25.610Z,7.98
2018-03-31T06:37:53.143Z,7.99
2018-03-31T06:40:20.645Z,7.93
2018-03-31T06:42:48.179Z,7.84
2018-03-31T06:45:15.691Z,7.90
2018-03-31T06:47:43.214Z,7.96
2018-03-31T06:50:10.802Z,7.94
2018-03-31T06:52:38.489Z,7.96
2018-03-31T06:55:06.099Z,7.97
2018-03-31T06:57:33.612Z,7.96
2018-03-31T07:00:01.142Z,7.91
2018-03-31T07:02:28.650Z,7.87
2018-03-31T07:04:56.186Z,7.79
2018-03-31T07:07:23.689Z,7.85
2018-03-31T07:09:51.222Z,7.87
2018-03-31T07:12:18.729Z,7.86
2018-03-31T07:14:46.252Z,7.78
2018-03-31T07:17:13.758Z,7.80
2018-03-31T07:19:41.286Z,7.76
2018-03-31T07:22:08.790Z,7.71
2018-03-31T07:24:36.314Z,7.78
2018-03-31T07:27:03.823Z,7.82
2018-03-31T07:29:31.346Z,7.80
2018-03-31T07:31:58.854Z,7.78
2018-03-31T07:34:26.392Z,7.79
2018-03-31T07:36:53.895Z,7.74
2018-03-31T07:39:21.426Z,7.72
2018-03-31T07:41:48.931Z,7.70
2018-03-31T07:44:16.458Z,7.71
2018-03-31T07:46:43.963Z,7.67
2018-03-31T07:49:11.499Z,7.72
2018-03-31T07:51:39.001Z,7.69
2018-03-31T07:54:06.525Z,7.67
2018-03-31T07:56:34.031Z,7.76
2018-03-31T07:59:01.562Z,7.74
2018-03-31T08:01:29.066Z,7.68
2018-03-31T08:03:57.718Z,7.62
2018-03-31T08:06:26.139Z,7.70
2018-03-31T08:08:53.662Z,7.67
2018-03-31T08:11:21.174Z,7.73
2018-03-31T08:13:48.707Z,7.68
2018-03-31T08:16:17.126Z,7.60
2018-03-31T08:18:44.788Z,7.62
2018-03-31T08:21:12.286Z,7.64
2018-03-31T08:23:39.819Z,7.61
2018-03-31T08:26:07.324Z,7.57
2018-03-31T08:28:34.840Z,7.54
2018-03-31T08:31:02.948Z,7.48
2018-03-31T08:33:30.453Z,7.46
2018-03-31T08:35:57.977Z,7.46
2018-03-31T08:38:25.477Z,7.49
2018-03-31T08:40:53.014Z,7.53
2018-03-31T08:43:20.517Z,7.46
2018-03-31T08:45:48.038Z,7.43
2018-03-31T08:48:15.546Z,7.28
2018-03-31T08:50:43.075Z,7.32
2018-03-31T08:53:10.591Z,7.36
2018-03-31T08:55:38.106Z,7.41
2018-03-31T08:58:05.613Z,7.50
2018-03-31T09:00:33.138Z,7.52
2018-03-31T09:03:01.123Z,7.49
2018-03-31T09:05:28.646Z,7.48
2018-03-31T09:07:56.156Z,7.48
2018-03-31T09:10:23.677Z,7.37
2018-03-31T09:12:51.186Z,7.38
2018-03-31T09:15:18.714Z,7.46
2018-03-31T09:17:46.222Z,7.46
2018-03-31T09:20:13.750Z,7.41
2018-03-31T09:22:45.781Z,7.40
2018-03-31T09:25:08.790Z,7.41
2018-03-31T09:27:36.441Z,7.42
2018-03-31T09:30:03.987Z,7.45
2018-03-31T09:32:31.496Z,7.46
2018-03-31T09:34:59.687Z,7.54
2018-03-31T09:37:27.189Z,7.62
2018-03-31T09:39:54.732Z,7.65
2018-03-31T09:42:22.247Z,7.57
2018-03-31T09:44:49.774Z,7.51
2018-03-31T09:47:17.281Z,7.49
2018-03-31T09:49:44.814Z,7.44
2018-03-31T09:52:12.329Z,7.47
2018-03-31T09:54:39.870Z,7.44
2018-03-31T09:57:07.395Z,7.50
2018-03-31T09:59:34.930Z,7.50
2018-03-31T10:02:02.454Z,7.58
2018-03-31T10:04:29.969Z,7.55
2018-03-31T10:06:58.407Z,7.59
2018-03-31T10:09:25.914Z,7.58
2018-03-31T10:11:53.452Z,7.54
2018-03-31T10:14:20.963Z,7.59
2018-03-31T10:16:49.463Z,7.52
2018-03-31T10:19:16.975Z,7.47
2018-03-31T10:21:44.578Z,7.47
2018-03-31T10:24:12.278Z,7.47
2018-03-31T10:26:39.842Z,7.51
2018-03-31T10:29:07.349Z,7.52
2018-03-31T10:31:34.877Z,7.49
2018-03-31T10:34:02.457Z,7.63
2018-03-31T10:36:30.012Z,7.79
2018-03-31T10:38:57.534Z,7.81
2018-03-31T10:41:25.214Z,7.74
2018-03-31T10:43:52.971Z,7.75
2018-03-31T10:46:20.658Z,7.70
2018-03-31T10:48:48.327Z,7.75
2018-03-31T10:51:15.833Z,7.71
2018-03-31T10:53:43.343Z,7.75
2018-03-31T10:56:11.082Z,7.76
2018-03-31T10:58:38.993Z,7.58
2018-03-31T11:01:06.527Z,7.49
2018-03-31T11:03:34.038Z,7.60
2018-03-31T11:06:01.738Z,7.53
2018-03-31T11:08:29.246Z,7.42
2018-03-31T11:10:56.775Z,7.42
2018-03-31T11:13:24.286Z,7.40
2018-03-31T11:15:51.828Z,7.44
2018-03-31T11:18:19.331Z,7.46
2018-03-31T11:20:46.882Z,7.49
2018-03-31T11:23:14.413Z,7.47
2018-03-31T11:25:41.993Z,7.44
2018-03-31T11:28:09.567Z,7.48
2018-03-31T11:30:37.093Z,7.57
2018-03-31T11:33:04.598Z,7.60
2018-03-31T11:35:32.111Z,7.63
2018-03-31T11:37:59.651Z,7.63
2018-03-31T11:40:27.165Z,7.58
2018-03-31T11:42:54.732Z,7.62
2018-03-31T11:45:22.222Z,7.58
2018-03-31T11:47:49.745Z,7.57
2018-03-31T11:50:17.246Z,7.52
2018-03-31T11:52:44.908Z,7.49
2018-03-31T11:55:12.451Z,7.37
2018-03-31T11:57:39.981Z,7.40
2018-03-31T12:00:07.491Z,7.51
2018-03-31T12:02:35.022Z,7.60
2018-03-31T12:05:02.539Z,7.57
2018-03-31T12:07:30.059Z,7.53
2018-03-31T12:09:57.567Z,7.55
2018-03-31T12:12:25.102Z,7.59
2018-03-31T12:14:52.611Z,7.59
2018-03-31T12:17:20.144Z,7.52
2018-03-31T12:19:47.669Z,7.53
2018-03-31T12:22:15.239Z,7.56
2018-03-31T12:24:42.849Z,7.65
2018-03-31T12:27:10.532Z,7.60
2018-03-31T12:29:37.990Z,7.49
2018-03-31T12:32:05.513Z,7.45
2018-03-31T12:34:33.053Z,7.42
2018-03-31T12:37:00.582Z,7.37
2018-03-31T12:39:28.091Z,7.49
2018-03-31T12:41:55.626Z,7.64
2018-03-31T12:44:23.151Z,7.55
2018-03-31T12:46:51.656Z,7.55
2018-03-31T12:49:19.167Z,7.57
2018-03-31T12:51:46.728Z,7.55
2018-03-31T12:54:14.197Z,8.21
2018-03-31T12:56:41.729Z,7.88
2018-03-31T12:59:09.237Z,7.82
2018-03-31T13:01:36.762Z,8.13
2018-03-31T13:04:04.271Z,8.37
2018-03-31T13:06:31.929Z,8.60
2018-03-31T13:08:59.553Z,8.47
2018-03-31T13:11:27.282Z,8.20
2018-03-31T13:13:54.819Z,8.05
2018-03-31T13:16:22.337Z,8.02
2018-03-31T13:18:49.853Z,7.91
2018-03-31T13:21:18.329Z,7.88
2018-03-31T13:23:45.859Z,7.93
2018-03-31T13:26:13.367Z,7.84
2018-03-31T13:28:40.903Z,7.82
2018-03-31T13:31:08.419Z,7.87
2018-03-31T13:33:35.954Z,8.02
2018-03-31T13:36:03.502Z,7.95
2018-03-31T13:38:31.035Z,7.92
2018-03-31T13:40:58.551Z,7.94
2018-03-31T13:43:26.075Z,7.95
2018-03-31T13:45:53.595Z,7.95
2018-03-31T13:48:21.127Z,8.02
2018-03-31T13:50:48.654Z,7.98
2018-03-31T13:53:16.208Z,7.97
2018-03-31T13:55:43.702Z,8.04
2018-03-31T13:58:11.230Z,8.07
2018-03-31T14:00:38.758Z,7.98
2018-03-31T14:03:06.498Z,8.00
2018-03-31T14:05:34.196Z,7.95
2018-03-31T14:08:01.919Z,7.93
2018-03-31T14:10:29.608Z,7.91
2018-03-31T14:12:57.511Z,7.81
2018-03-31T14:15:26.094Z,7.86
2018-03-31T14:17:53.788Z,7.89
2018-03-31T14:20:21.512Z,7.94
2018-03-31T14:22:49.217Z,7.94
2018-03-31T14:25:16.754Z,7.94
2018-03-31T14:27:44.283Z,7.97
2018-03-31T14:30:11.790Z,8.09
2018-03-31T14:32:39.354Z,8.05
2018-03-31T14:35:06.886Z,7.88
2018-03-31T14:37:34.415Z,7.90
2018-03-31T14:40:01.933Z,7.90
2018-03-31T14:42:30.032Z,7.98
2018-03-31T14:44:57.534Z,8.09
2018-03-31T14:47:25.078Z,8.09
2018-03-31T14:49:52.583Z,8.08
2018-03-31T14:52:20.131Z,8.09
2018-03-31T14:54:47.667Z,7.90
2018-03-31T14:57:15.159Z,7.90
2018-03-31T14:59:42.687Z,7.78
2018-03-31T15:02:10.191Z,7.87
2018-03-31T15:04:37.717Z,7.83
2018-03-31T15:07:05.218Z,7.87
2018-03-31T15:09:32.757Z,7.87
2018-03-31T15:12:00.266Z,7.72
2018-03-31T15:14:27.794Z,7.68
2018-03-31T15:16:55.306Z,7.72
2018-03-31T15:19:22.838Z,7.80
2018-03-31T15:21:51.200Z,7.81
2018-03-31T15:24:18.730Z,7.80
2018-03-31T15:26:46.230Z,7.74
2018-03-31T15:29:13.758Z,7.76
2018-03-31T15:31:41.261Z,7.83
2018-03-31T15:34:08.803Z,7.78
2018-03-31T15:36:36.320Z,7.76
2018-03-31T15:39:03.842Z,7.80
2018-03-31T15:41:31.357Z,7.83
2018-03-31T15:43:58.906Z,7.77
2018-03-31T15:46:27.230Z,7.71
2018-03-31T15:48:54.754Z,7.68
2018-03-31T15:51:22.276Z,7.74
2018-03-31T15:53:49.797Z,7.79
2018-03-31T15:56:17.306Z,7.86
2018-03-31T15:58:44.858Z,7.79
2018-03-31T16:01:12.388Z,7.82
2018-03-31T16:03:39.921Z,7.89
2018-03-31T16:06:07.427Z,7.79
2018-03-31T16:08:34.954Z,7.75
2018-03-31T16:11:02.458Z,7.72
2018-03-31T16:13:29.985Z,7.70
2018-03-31T16:15:57.495Z,7.72
2018-03-31T16:18:25.643Z,7.83
2018-03-31T16:20:53.146Z,7.75
2018-03-31T16:23:20.834Z,7.67
2018-03-31T16:25:48.338Z,7.61
2018-03-31T16:28:15.844Z,7.57
2018-03-31T16:30:43.378Z,7.53
2018-03-31T16:33:10.886Z,7.60
2018-03-31T16:35:38.414Z,7.67
2018-03-31T16:38:05.925Z,7.67
2018-03-31T16:40:33.463Z,7.58
2018-03-31T16:43:00.958Z,7.52
2018-03-31T16:45:28.486Z,7.52
2018-03-31T16:47:55.986Z,7.46
2018-03-31T16:50:23.518Z,7.42
2018-03-31T16:52:51.037Z,7.46
2018-03-31T16:55:18.558Z,7.47
2018-03-31T16:57:46.066Z,7.53
2018-03-31T17:00:13.600Z,7.53
2018-03-31T17:02:41.106Z,7.45
2018-03-31T17:05:08.634Z,7.39
2018-03-31T17:07:36.138Z,7.37
2018-03-31T17:10:03.665Z,7.34
2018-03-31T17:12:31.184Z,7.35
2018-03-31T17:14:58.707Z,7.41
2018-03-31T17:17:26.215Z,7.49
2018-03-31T17:19:56.605Z,7.45
2018-03-31T17:22:24.618Z,7.44
2018-03-31T17:24:52.149Z,7.31
2018-03-31T17:27:20.023Z,7.40
2018-03-31T17:29:47.529Z,7.42
2018-03-31T17:32:15.030Z,7.39
2018-03-31T17:34:42.554Z,7.40
2018-03-31T17:37:10.062Z,7.45
2018-03-31T17:39:37.594Z,7.36
2018-03-31T17:42:05.098Z,7.15
2018-03-31T17:44:32.631Z,7.16
2018-03-31T17:47:00.130Z,7.11
2018-03-31T17:49:27.659Z,7.15
2018-03-31T17:51:55.157Z,7.23
2018-03-31T17:54:22.683Z,7.19
2018-03-31T17:56:50.190Z,7.04
2018-03-31T17:59:17.717Z,6.95
2018-03-31T18:01:45.228Z,7.10
2018-03-31T18:04:12.734Z,7.10
2018-03-31T18:06:41.258Z,6.93
2018-03-31T18:09:08.765Z,6.93
2018-03-31T18:11:36.289Z,6.89
2018-03-31T18:14:03.793Z,6.88
2018-03-31T18:16:31.331Z,6.79
2018-03-31T18:18:58.851Z,6.89
2018-03-31T18:21:26.374Z,6.87
2018-03-31T18:23:53.889Z,6.78
2018-03-31T18:26:21.414Z,6.75
2018-03-31T18:28:48.918Z,6.79
2018-03-31T18:31:16.446Z,6.68
2018-03-31T18:33:43.949Z,6.64
2018-03-31T18:36:11.474Z,6.56
2018-03-31T18:38:38.981Z,6.52
2018-03-31T18:41:06.506Z,6.59
2018-03-31T18:43:34.018Z,6.52
2018-03-31T18:46:01.546Z,6.38
2018-03-31T18:48:29.056Z,6.35
2018-03-31T18:50:56.586Z,6.43
2018-03-31T18:53:24.094Z,6.43
2018-03-31T18:55:51.632Z,6.42
2018-03-31T18:58:19.138Z,6.41
2018-03-31T19:00:46.662Z,6.42
2018-03-31T19:03:14.166Z,6.50
2018-03-31T19:05:41.694Z,6.58
2018-03-31T19:08:09.206Z,6.37
2018-03-31T19:10:36.730Z,6.25
2018-03-31T19:13:04.238Z,6.37
2018-03-31T19:15:31.765Z,6.42
2018-03-31T19:17:59.271Z,6.45
2018-03-31T19:20:26.801Z,6.48
2018-03-31T19:22:54.301Z,6.50
2018-03-31T19:25:27.462Z,6.45
2018-03-31T19:27:54.969Z,6.50
2018-03-31T19:30:22.492Z,6.60
2018-03-31T19:32:49.993Z,6.65
2018-03-31T19:35:18.550Z,6.54
2018-03-31T19:37:46.058Z,6.53
2018-03-31T19:40:13.614Z,6.54
2018-03-31T19:42:41.118Z,6.61
2018-03-31T19:45:08.651Z,6.57
2018-03-31T19:47:36.183Z,6.51
2018-03-31T19:50:03.762Z,6.47
2018-03-31T19:52:31.235Z,6.47
2018-03-31T19:54:58.742Z,6.50
2018-03-31T19:57:26.275Z,6.56
2018-03-31T19:59:53.777Z,6.60
2018-03-31T20:02:21.308Z,6.67
2018-03-31T20:04:48.819Z,6.71
2018-03-31T20:07:16.355Z,6.62
2018-03-31T20:09:43.866Z,6.51
2018-03-31T20:12:11.405Z,6.44
2018-03-31T20:14:38.930Z,6.38
2018-03-31T20:17:06.458Z,6.44
2018-03-31T20:19:33.970Z,6.45
2018-03-31T20:22:01.499Z,6.38
2018-03-31T20:24:28.997Z,6.20
2018-03-31T20:26:56.522Z,6.07
2018-03-31T20:29:24.034Z,6.16
2018-03-31T20:31:51.569Z,6.25
2018-03-31T20:34:19.082Z,6.23
2018-03-31T20:36:46.604Z,6.11
2018-03-31T20:39:14.834Z,6.15
2018-03-31T20:41:42.368Z,5.99
2018-03-31T20:44:09.880Z,6.04
2018-03-31T20:46:37.406Z,5.99
2018-03-31T20:49:04.917Z,5.99
2018-03-31T20:51:32.443Z,6.02
2018-03-31T20:53:59.956Z,5.94
2018-03-31T20:56:27.521Z,5.82
2018-03-31T20:58:54.990Z,5.83
2018-03-31T21:01:22.525Z,5.70
2018-03-31T21:03:50.037Z,5.68
2018-03-31T21:06:18.471Z,5.66
2018-03-31T21:08:45.979Z,5.72
2018-03-31T21:11:13.506Z,5.74
2018-03-31T21:13:41.014Z,5.65
2018-03-31T21:16:08.550Z,5.57
2018-03-31T21:18:36.109Z,5.58
2018-03-31T21:21:03.605Z,5.52
2018-03-31T21:23:31.133Z,5.53
2018-03-31T21:25:58.643Z,5.56
2018-03-31T21:28:27.234Z,5.52
2018-03-31T21:30:54.743Z,5.58
2018-03-31T21:33:22.273Z,5.59
2018-03-31T21:35:49.783Z,5.64
2018-03-31T21:38:17.311Z,5.69
2018-03-31T21:40:44.816Z,5.73
2018-03-31T21:43:12.343Z,5.87
2018-03-31T21:45:39.873Z,5.85
2018-03-31T21:48:07.402Z,5.82
2018-03-31T21:50:34.941Z,5.71
2018-03-31T21:53:02.486Z,5.62
2018-03-31T21:55:30.028Z,5.52
2018-03-31T21:57:57.528Z,5.53
2018-03-31T22:00:25.030Z,5.62
2018-03-31T22:02:52.559Z,5.64
2018-03-31T22:05:20.067Z,5.60
2018-03-31T22:07:47.591Z,5.55
2018-03-31T22:10:15.090Z,5.54
2018-03-31T22:12:43.605Z,5.43
2018-03-31T22:15:16.650Z,5.39
2018-03-31T22:17:44.170Z,5.48
2018-03-31T22:20:11.678Z,5.54
2018-03-31T22:22:39.206Z,5.65
2018-03-31T22:25:06.709Z,5.62
2018-03-31T22:27:34.235Z,5.73
2018-03-31T22:30:01.785Z,5.69
2018-03-31T22:32:29.308Z,5.64
2018-03-31T22:34:57.028Z,5.61
2018-03-31T22:37:24.558Z,5.74
2018-03-31T22:39:52.069Z,5.80
2018-03-31T22:42:19.589Z,5.79
2018-03-31T22:44:47.106Z,5.85
2018-03-31T22:47:14.639Z,5.85
2018-03-31T22:49:42.142Z,5.85
2018-03-31T22:52:09.665Z,5.77
2018-03-31T22:54:37.166Z,5.72
2018-03-31T22:57:04.705Z,5.77
2018-03-31T22:59:32.209Z,5.70
2018-03-31T23:01:59.713Z,5.68
2018-03-31T23:04:27.530Z,5.63
2018-03-31T23:06:55.314Z,5.50
2018-03-31T23:09:23.134Z,5.47
2018-03-31T23:11:50.922Z,5.45
2018-03-31T23:14:18.741Z,5.46
2018-03-31T23:16:46.521Z,5.42
2018-03-31T23:19:14.326Z,5.33
2018-03-31T23:21:42.106Z,5.25
2018-03-31T23:24:09.905Z,5.26
2018-03-31T23:26:37.682Z,5.25
2018-03-31T23:29:05.490Z,5.32
2018-03-31T23:31:33.265Z,5.34
2018-03-31T23:34:01.066Z,5.38
2018-03-31T23:36:28.849Z,5.44
2018-03-31T23:38:56.370Z,5.41
2018-03-31T23:41:23.874Z,5.37
2018-03-31T23:43:51.397Z,5.34
2018-03-31T23:46:18.902Z,5.34
2018-03-31T23:48:46.426Z,5.36
2018-03-31T23:51:13.934Z,5.33
2018-03-31T23:53:41.448Z,5.24
2018-03-31T23:56:08.962Z,5.19
2018-03-31T23:58:36.486Z,5.26
